Time;durP1;ratioP1;P1;durP2;ratioP2;P2;SDS_P1;SDS_P2;PMS_P1;PMS_P2;Temp;Humidity;BMP_temperature;BMP_pressure;BME280_temperature;BME280_humidity;BME280_pressure;Samples;Min_cycle;Max_cycle;Signal;HPM_P1;HPM_P2
2023/01/01 00:00:13;;;;;;;40.85;34.72;;;16.80;77.10;;;;;;7406795;19;19921;-63
2023/01/01 00:02:42;;;;;;;42.05;30.95;;;16.80;77.10;;;;;;7407037;19;20411;-63
2023/01/01 00:05:11;;;;;;;42.90;35.05;;;16.80;77.10;;;;;;7406923;19;19915;-63
2023/01/01 00:07:43;;;;;;;42.55;34.22;;;16.80;77.20;;;;;;7409389;19;20274;-64
2023/01/01 00:12:54;;;;;;;40.08;30.48;;;16.80;77.20;;;;;;7407343;19;20360;-63
2023/01/01 00:15:23;;;;;;;44.78;35.08;;;16.80;77.20;;;;;;7405557;19;19943;-63
2023/01/01 00:17:53;;;;;;;36.80;27.85;;;16.70;77.10;;;;;;7407518;19;20281;-63
2023/01/01 00:20:23;;;;;;;35.75;27.00;;;16.80;77.20;;;;;;7406465;19;19937;-63
2023/01/01 00:22:55;;;;;;;40.15;32.97;;;16.70;77.10;;;;;;7405894;19;19926;-63
2023/01/01 00:25:25;;;;;;;38.90;33.00;;;16.70;77.20;;;;;;7406228;19;19919;-64
2023/01/01 00:27:54;;;;;;;35.97;28.92;;;16.70;77.20;;;;;;7404782;19;19918;-63
2023/01/01 00:30:26;;;;;;;34.45;28.90;;;16.70;77.30;;;;;;7405340;19;19922;-63
2023/01/01 00:32:55;;;;;;;37.28;31.48;;;16.70;77.30;;;;;;7404298;19;19918;-64
2023/01/01 00:35:25;;;;;;;36.60;31.83;;;16.70;77.20;;;;;;7403850;19;19911;-63
2023/01/01 00:37:57;;;;;;;33.53;29.85;;;16.70;77.30;;;;;;7410358;19;19978;-63
2023/01/01 00:40:26;;;;;;;33.60;24.60;;;16.70;77.30;;;;;;7406172;19;19922;-63
2023/01/01 00:42:55;;;;;;;33.00;26.50;;;16.70;77.30;;;;;;7406094;19;20324;-63
2023/01/01 00:45:24;;;;;;;34.05;29.80;;;16.70;77.30;;;;;;7404077;19;19914;-63
2023/01/01 00:47:55;;;;;;;34.22;25.02;;;16.70;77.40;;;;;;7405637;19;20344;-63
2023/01/01 00:50:24;;;;;;;34.60;24.80;;;16.60;77.30;;;;;;7406399;19;19915;-63
2023/01/01 00:52:53;;;;;;;36.92;30.02;;;16.70;77.40;;;;;;7406062;19;19915;-63
2023/01/01 00:55:25;;;;;;;36.33;27.90;;;16.70;77.40;;;;;;7405601;19;20399;-63
2023/01/01 00:57:54;;;;;;;30.20;24.45;;;16.60;77.30;;;;;;7405508;19;19942;-63
2023/01/01 01:00:23;;;;;;;36.88;28.40;;;16.70;77.40;;;;;;7405827;19;19922;-64
2023/01/01 01:02:52;;;;;;;35.05;26.25;;;16.60;77.40;;;;;;7405189;19;19906;-63
2023/01/01 01:05:21;;;;;;;34.22;25.40;;;16.60;77.40;;;;;;7405996;19;19931;-64
2023/01/01 01:07:51;;;;;;;31.90;24.42;;;16.60;77.40;;;;;;7406075;19;19915;-64
2023/01/01 01:10:21;;;;;;;31.40;28.00;;;16.60;77.50;;;;;;7405094;19;19970;-63
2023/01/01 01:12:52;;;;;;;34.47;25.75;;;16.60;77.50;;;;;;7405321;19;19915;-63
2023/01/01 01:15:22;;;;;;;29.25;23.48;;;16.70;77.60;;;;;;7404374;19;19911;-63
2023/01/01 01:17:51;;;;;;;31.17;23.77;;;16.70;77.60;;;;;;7409498;19;19927;-63
2023/01/01 01:20:22;;;;;;;29.40;22.98;;;16.70;77.70;;;;;;7404913;19;19970;-64
2023/01/01 01:23:01;;;;;;;32.45;26.77;;;16.70;77.60;;;;;;7403845;19;20359;-64
2023/01/01 01:25:30;;;;;;;31.65;26.02;;;16.70;77.70;;;;;;7405228;19;20240;-63
2023/01/01 01:28:02;;;;;;;33.35;25.23;;;16.80;77.60;;;;;;7405969;19;19942;-63
2023/01/01 01:30:31;;;;;;;28.88;24.77;;;16.80;77.60;;;;;;7404888;19;19938;-63
2023/01/01 01:33:01;;;;;;;26.75;21.50;;;16.90;77.70;;;;;;7404367;19;19919;-64
2023/01/01 01:35:31;;;;;;;27.80;22.05;;;16.90;77.60;;;;;;7405373;19;19919;-63
2023/01/01 01:38:01;;;;;;;28.88;23.60;;;16.90;77.60;;;;;;7404879;19;19922;-63
2023/01/01 01:40:30;;;;;;;;;;;17.00;77.60;;;;;;7404569;19;19915;-64
2023/01/01 01:43:02;;;;;;;24.88;18.42;;;17.00;77.70;;;;;;7404841;19;19932;-63
2023/01/01 01:45:31;;;;;;;27.15;23.13;;;17.00;77.50;;;;;;7402858;19;19925;-63
2023/01/01 01:48:03;;;;;;;26.10;19.95;;;17.00;77.50;;;;;;7404629;19;19918;-63
2023/01/01 01:50:43;;;;;;;29.30;23.83;;;17.00;77.50;;;;;;7404211;19;20490;-63
2023/01/01 01:53:17;;;;;;;25.10;22.38;;;17.00;77.40;;;;;;7402914;19;19919;-63
2023/01/01 01:55:52;;;;;;;26.88;20.77;;;17.10;77.50;;;;;;7402991;19;19932;-63
2023/01/01 01:58:32;;;;;;;27.85;22.67;;;17.00;77.50;;;;;;7404259;19;19918;-63
2023/01/01 02:01:02;;;;;;;27.17;21.70;;;17.10;77.40;;;;;;7403929;19;19911;-63
2023/01/01 02:03:39;;;;;;;24.65;19.42;;;17.10;77.50;;;;;;7403339;19;19917;-63
2023/01/01 02:06:09;;;;;;;27.00;19.25;;;17.10;77.50;;;;;;7404375;19;19918;-63
2023/01/01 02:08:44;;;;;;;23.77;18.90;;;17.00;77.40;;;;;;7403594;19;19910;-63
2023/01/01 02:11:14;;;;;;;23.27;19.05;;;17.00;77.40;;;;;;7403417;19;20595;-63
2023/01/01 02:13:46;;;;;;;23.77;17.38;;;17.10;77.40;;;;;;7403922;19;20362;-63
2023/01/01 02:16:22;;;;;;;26.67;19.88;;;17.00;77.40;;;;;;7402366;19;19919;-64
2023/01/01 02:18:57;;;;;;;23.67;17.38;;;17.00;77.40;;;;;;7403824;19;19911;-63
2023/01/01 02:21:32;;;;;;;26.20;20.70;;;17.00;77.40;;;;;;7402821;19;19914;-63
2023/01/01 02:24:32;;;;;;;23.45;20.38;;;17.00;77.40;;;;;;7402037;19;19938;-63
2023/01/01 02:27:05;;;;;;;21.63;19.25;;;17.00;77.50;;;;;;7402132;19;19920;-63
2023/01/01 02:29:44;;;;;;;25.50;20.70;;;17.00;77.40;;;;;;7403453;19;19928;-64
2023/01/01 02:32:17;;;;;;;22.95;17.92;;;16.90;77.50;;;;;;7403361;19;19934;-64
2023/01/01 02:34:50;;;;;;;23.27;19.63;;;17.00;77.50;;;;;;7405526;19;19929;-64
2023/01/01 02:37:21;;;;;;;24.05;17.42;;;17.00;77.50;;;;;;7402643;19;19911;-63
2023/01/01 02:40:00;;;;;;;22.88;18.23;;;16.90;77.50;;;;;;7402387;19;19911;-63
2023/01/01 02:42:31;;;;;;;22.33;16.75;;;16.90;77.50;;;;;;7402895;19;19914;-63
2023/01/01 02:45:03;;;;;;;22.88;19.73;;;16.90;77.60;;;;;;7401169;19;19917;-63
2023/01/01 02:47:32;;;;;;;20.38;17.73;;;16.90;77.60;;;;;;7402264;19;19910;-64
2023/01/01 02:50:07;;;;;;;24.13;18.02;;;16.90;77.60;;;;;;7402789;19;19935;-63
2023/01/01 02:52:52;;;;;;;23.15;18.95;;;16.90;77.60;;;;;;7405938;19;20233;-63
2023/01/01 02:55:35;;;;;;;20.40;15.32;;;16.90;77.60;;;;;;7409066;19;19915;-64
2023/01/01 03:01:04;;;;;;;18.75;14.80;;;16.80;77.60;;;;;;7407066;19;19914;-63
2023/01/01 03:03:41;;;;;;;19.00;15.90;;;16.80;77.60;;;;;;7408829;19;19922;-63
2023/01/01 03:06:27;;;;;;;21.85;17.33;;;16.80;77.70;;;;;;7412730;19;20555;-63
2023/01/01 03:09:07;;;;;;;20.20;17.58;;;16.80;77.70;;;;;;7408442;19;19935;-64
2023/01/01 03:11:44;;;;;;;20.30;16.98;;;16.80;77.70;;;;;;7408954;19;19950;-64
2023/01/01 03:14:20;;;;;;;20.48;16.45;;;16.80;77.70;;;;;;7408228;19;20012;-63
2023/01/01 03:16:55;;;;;;;22.08;16.77;;;16.80;77.70;;;;;;7406907;19;19986;-63
2023/01/01 03:19:27;;;;;;;20.27;16.50;;;16.80;77.70;;;;;;7408303;19;20457;-63
2023/01/01 03:22:02;;;;;;;16.83;13.20;;;16.80;77.70;;;;;;7408109;19;19919;-64
2023/01/01 03:24:35;;;;;;;18.42;16.52;;;16.70;77.70;;;;;;7406479;19;19929;-64
2023/01/01 03:27:07;;;;;;;18.52;16.42;;;16.70;77.70;;;;;;7408056;19;20253;-63
2023/01/01 03:29:41;;;;;;;17.38;13.57;;;16.70;77.70;;;;;;7408148;19;20256;-64
2023/01/01 03:32:18;;;;;;;18.35;12.30;;;16.70;77.70;;;;;;7407843;19;19914;-63
2023/01/01 03:34:53;;;;;;;16.45;13.32;;;16.70;77.80;;;;;;7408407;19;19942;-63
2023/01/01 03:37:26;;;;;;;16.95;15.05;;;16.70;77.70;;;;;;7405555;19;20339;-64
2023/01/01 03:39:57;;;;;;;19.33;14.98;;;16.70;77.70;;;;;;7407761;19;19910;-64
2023/01/01 03:42:33;;;;;;;16.65;13.38;;;16.70;77.80;;;;;;7408076;19;19918;-64
2023/01/01 03:45:03;;;;;;;;;;;16.70;77.80;;;;;;7408447;19;19914;-63
2023/01/01 03:47:35;;;;;;;16.80;13.05;;;16.70;77.80;;;;;;7407558;19;19957;-63
2023/01/01 03:50:05;;;;;;;18.23;14.00;;;16.70;77.80;;;;;;7408038;19;19914;-63
2023/01/01 03:52:45;;;;;;;14.90;11.70;;;16.60;77.70;;;;;;7407395;19;19941;-64
2023/01/01 03:55:20;;;;;;;16.80;12.48;;;16.60;77.80;;;;;;7407776;19;19922;-64
2023/01/01 03:58:04;;;;;;;16.67;13.15;;;16.60;77.80;;;;;;7407380;19;19931;-64
2023/01/01 04:00:36;;;;;;;18.25;13.70;;;16.70;77.80;;;;;;7407835;19;19915;-63
2023/01/01 04:03:25;;;;;;;16.40;13.80;;;16.70;77.90;;;;;;7405370;19;20264;-64
2023/01/01 04:05:54;;;;;;;17.15;12.45;;;16.60;77.80;;;;;;7405970;19;19919;-64
2023/01/01 04:08:26;;;;;;;14.30;11.45;;;16.60;77.90;;;;;;7407157;19;19914;-63
2023/01/01 04:10:57;;;;;;;;;;;16.60;77.90;;;;;;7409353;19;19936;-63
2023/01/01 04:13:27;;;;;;;16.13;10.85;;;16.60;77.90;;;;;;7407502;19;19919;-64
2023/01/01 04:15:56;;;;;;;15.57;12.32;;;16.60;77.90;;;;;;7406014;19;19918;-64
2023/01/01 04:18:27;;;;;;;17.02;12.65;;;16.60;77.90;;;;;;7407596;19;19918;-63
2023/01/01 04:20:57;;;;;;;13.75;10.68;;;16.60;77.90;;;;;;7407010;19;19999;-63
2023/01/01 04:23:26;;;;;;;14.18;10.32;;;16.60;77.90;;;;;;7405613;19;19926;-63
2023/01/01 04:25:56;;;;;;;14.95;10.57;;;16.70;78.00;;;;;;7406693;19;19925;-64
2023/01/01 04:28:25;;;;;;;13.00;9.55;;;16.70;77.90;;;;;;7406274;19;19995;-63
2023/01/01 04:30:54;;;;;;;14.13;9.57;;;16.70;77.90;;;;;;7406416;19;19910;-64
2023/01/01 04:33:31;;;;;;;12.40;10.00;;;16.80;78.00;;;;;;7410203;19;20367;-64
2023/01/01 04:36:05;;;;;;;12.25;9.50;;;16.80;78.00;;;;;;7406915;19;19926;-63
2023/01/01 04:38:35;;;;;;;13.63;10.93;;;16.80;78.00;;;;;;7406170;19;19973;-64
2023/01/01 04:41:07;;;;;;;12.57;8.82;;;16.90;78.00;;;;;;7406438;19;19922;-64
2023/01/01 04:43:36;;;;;;;12.13;10.20;;;16.90;78.10;;;;;;7405700;19;19907;-64
2023/01/01 04:46:06;;;;;;;11.30;8.95;;;16.90;77.90;;;;;;7406280;19;19919;-64
2023/01/01 04:48:38;;;;;;;12.05;8.80;;;17.00;78.00;;;;;;7406436;19;19914;-64
2023/01/01 04:51:07;;;;;;;12.45;10.75;;;17.00;78.00;;;;;;7406367;19;20264;-64
2023/01/01 04:53:37;;;;;;;;;;;17.00;77.90;;;;;;7408619;19;19915;-64
2023/01/01 04:56:07;;;;;;;12.98;8.32;;;17.10;78.00;;;;;;7405894;19;19935;-63
2023/01/01 04:58:37;;;;;;;11.25;9.52;;;17.10;77.90;;;;;;7406409;19;19926;-64
2023/01/01 05:01:07;;;;;;;11.90;8.57;;;17.00;77.80;;;;;;7405742;19;19915;-64
2023/01/01 05:03:39;;;;;;;11.80;8.15;;;17.10;77.80;;;;;;7409346;19;19926;-64
2023/01/01 05:06:10;;;;;;;15.68;9.93;;;17.10;77.80;;;;;;7405834;19;19975;-63
2023/01/01 05:08:41;;;;;;;12.45;9.88;;;17.10;77.80;;;;;;7406116;19;19929;-64
2023/01/01 05:11:12;;;;;;;11.30;8.30;;;17.10;77.80;;;;;;7405138;19;20336;-64
2023/01/01 05:13:44;;;;;;;12.15;8.88;;;17.10;77.80;;;;;;7405228;19;20272;-64
2023/01/01 05:16:15;;;;;;;13.30;9.70;;;17.10;77.80;;;;;;7402828;19;19942;-64
2023/01/01 05:18:48;;;;;;;11.85;9.57;;;17.10;77.80;;;;;;7405398;19;19918;-64
2023/01/01 05:21:19;;;;;;;11.68;9.05;;;17.00;77.80;;;;;;7405339;19;19914;-64
2023/01/01 05:23:49;;;;;;;9.65;8.40;;;17.00;77.80;;;;;;7404171;19;20256;-64
2023/01/01 05:26:21;;;;;;;10.82;8.07;;;17.00;77.80;;;;;;7403695;19;19978;-63
2023/01/01 05:28:50;;;;;;;10.90;8.77;;;17.00;77.80;;;;;;7405383;19;19913;-64
2023/01/01 05:31:21;;;;;;;10.75;7.78;;;17.00;77.80;;;;;;7405803;19;20332;-63
2023/01/01 05:33:54;;;;;;;10.68;7.28;;;17.00;77.80;;;;;;7404898;19;19918;-64
2023/01/01 05:36:25;;;;;;;10.85;8.50;;;17.00;77.80;;;;;;7404722;19;19930;-64
2023/01/01 05:38:55;;;;;;;11.80;7.70;;;17.00;77.80;;;;;;7405086;19;19922;-63
2023/01/01 05:41:24;;;;;;;;;;;16.90;77.80;;;;;;7406734;19;19907;-63
2023/01/01 05:43:54;;;;;;;10.00;7.00;;;17.00;77.80;;;;;;7404276;19;19921;-63
2023/01/01 05:46:26;;;;;;;8.98;7.07;;;16.90;77.90;;;;;;7405331;19;19922;-63
2023/01/01 05:48:57;;;;;;;12.00;7.95;;;16.90;77.80;;;;;;7404546;19;20271;-64
2023/01/01 05:51:28;;;;;;;9.13;6.20;;;16.90;77.80;;;;;;7405019;19;19923;-64
2023/01/01 05:53:58;;;;;;;10.02;5.88;;;16.90;77.90;;;;;;7403906;19;19922;-63
2023/01/01 05:56:28;;;;;;;11.73;6.45;;;16.90;77.90;;;;;;7404215;19;19911;-64
2023/01/01 05:58:58;;;;;;;9.77;7.85;;;16.90;77.90;;;;;;7403997;19;19914;-63
2023/01/01 06:01:29;;;;;;;10.43;6.65;;;16.90;78.00;;;;;;7406351;19;19971;-63
2023/01/01 06:04:01;;;;;;;8.63;6.25;;;16.80;77.90;;;;;;7403389;19;19912;-64
2023/01/01 06:06:32;;;;;;;12.48;6.10;;;16.80;77.90;;;;;;7403823;19;19923;-64
2023/01/01 06:09:07;;;;;;;9.32;6.70;;;16.80;77.90;;;;;;7403999;19;19948;-63
2023/01/01 06:11:36;;;;;;;9.35;6.53;;;16.80;77.90;;;;;;7403571;19;19914;-63
2023/01/01 06:14:05;;;;;;;8.15;5.53;;;16.80;77.90;;;;;;7403884;19;20324;-64
2023/01/01 06:16:35;;;;;;;7.85;5.32;;;16.80;77.90;;;;;;7401006;19;20317;-64
2023/01/01 06:19:07;;;;;;;8.88;6.03;;;16.80;77.90;;;;;;7402987;19;19919;-63
2023/01/01 06:21:37;;;;;;;8.95;6.55;;;16.80;77.90;;;;;;7403613;19;19934;-64
2023/01/01 06:24:08;;;;;;;9.32;5.68;;;16.80;77.90;;;;;;7402170;19;19915;-63
2023/01/01 06:26:37;;;;;;;6.30;5.10;;;16.70;77.90;;;;;;7404411;19;19939;-63
2023/01/01 06:29:06;;;;;;;8.00;5.38;;;16.80;77.90;;;;;;7410156;19;19918;-64
2023/01/01 06:31:35;;;;;;;8.05;4.97;;;16.70;77.90;;;;;;7413087;19;19958;-64
2023/01/01 06:34:07;;;;;;;7.38;4.53;;;16.70;77.90;;;;;;7410126;19;19922;-63
2023/01/01 06:36:36;;;;;;;7.35;6.28;;;16.70;77.90;;;;;;7409611;19;19926;-63
2023/01/01 06:39:05;;;;;;;8.25;5.40;;;16.70;77.90;;;;;;7409643;19;19915;-63
2023/01/01 06:41:35;;;;;;;7.22;6.53;;;16.70;77.90;;;;;;7409665;19;20344;-64
2023/01/01 06:44:04;;;;;;;6.63;5.05;;;16.70;77.90;;;;;;7408546;19;19919;-64
2023/01/01 06:46:35;;;;;;;7.10;5.07;;;16.70;77.90;;;;;;7409285;19;19921;-63
2023/01/01 06:49:08;;;;;;;8.50;6.13;;;16.70;77.90;;;;;;7409341;19;19915;-63
2023/01/01 06:51:40;;;;;;;8.10;5.57;;;16.70;77.90;;;;;;7409407;19;19938;-64
2023/01/01 06:54:11;;;;;;;6.10;3.67;;;16.70;77.90;;;;;;7409577;19;20336;-63
2023/01/01 06:56:40;;;;;;;6.43;4.97;;;16.70;77.90;;;;;;7408775;19;19918;-64
2023/01/01 06:59:13;;;;;;;5.45;3.85;;;16.60;77.80;;;;;;7409835;19;19937;-64
2023/01/01 07:01:42;;;;;;;8.23;5.35;;;16.60;77.80;;;;;;7409044;19;19910;-63
2023/01/01 07:04:16;;;;;;;6.15;3.58;;;16.60;77.80;;;;;;7408563;19;20254;-64
2023/01/01 07:06:45;;;;;;;5.45;4.75;;;16.60;77.70;;;;;;7408703;19;19950;-64
2023/01/01 07:09:14;;;;;;;6.00;3.88;;;16.60;77.70;;;;;;7408519;19;19919;-63
2023/01/01 07:11:43;;;;;;;5.75;3.70;;;16.60;77.80;;;;;;7408861;19;19921;-63
2023/01/01 07:14:14;;;;;;;6.82;4.35;;;16.60;77.70;;;;;;7408753;19;19918;-64
2023/01/01 07:16:43;;;;;;;6.38;3.63;;;16.60;77.70;;;;;;7408338;19;19948;-64
2023/01/01 07:19:14;;;;;;;6.13;3.67;;;16.60;77.70;;;;;;7408532;19;19918;-64
2023/01/01 07:21:47;;;;;;;5.78;3.95;;;16.60;77.60;;;;;;7409026;19;19918;-63
2023/01/01 07:24:18;;;;;;;5.03;3.75;;;16.60;77.70;;;;;;7406671;19;20244;-64
2023/01/01 07:26:47;;;;;;;7.55;3.92;;;16.60;77.60;;;;;;7408201;19;19918;-63
2023/01/01 07:29:17;;;;;;;6.78;4.43;;;16.60;77.60;;;;;;7409894;19;20263;-64
2023/01/01 07:31:46;;;;;;;5.00;2.85;;;16.70;77.60;;;;;;7407913;19;20467;-64
2023/01/01 07:34:21;;;;;;;4.75;3.20;;;16.70;77.60;;;;;;7407659;19;19915;-64
2023/01/01 07:36:50;;;;;;;5.85;3.80;;;16.70;77.60;;;;;;7408147;19;19915;-63
2023/01/01 07:39:20;;;;;;;4.93;4.22;;;16.80;77.60;;;;;;7405076;19;19918;-63
2023/01/01 07:41:49;;;;;;;5.57;4.07;;;16.80;77.50;;;;;;7408261;19;19918;-64
2023/01/01 07:44:18;;;;;;;5.55;3.05;;;16.80;77.40;;;;;;7406750;19;20256;-63
2023/01/01 07:46:47;;;;;;;;;;;16.80;77.40;;;;;;7410508;19;19921;-63
2023/01/01 07:49:19;;;;;;;5.40;3.50;;;16.90;77.40;;;;;;7407723;19;19919;-63
2023/01/01 07:51:52;;;;;;;5.50;3.15;;;16.90;77.40;;;;;;7407369;19;19914;-64
2023/01/01 07:54:21;;;;;;;4.43;2.78;;;16.90;77.30;;;;;;7407635;19;19929;-63
2023/01/01 07:56:50;;;;;;;4.53;2.20;;;17.00;77.20;;;;;;7406716;19;19942;-64
2023/01/01 07:59:19;;;;;;;5.85;3.15;;;17.00;77.20;;;;;;7411215;19;19970;-63
2023/01/01 08:01:48;;;;;;;4.85;2.85;;;17.00;77.10;;;;;;7407763;19;19993;-63
2023/01/01 08:04:19;;;;;;;3.90;2.15;;;17.00;77.00;;;;;;7407026;19;19915;-63
2023/01/01 08:06:48;;;;;;;4.55;3.15;;;17.00;77.00;;;;;;7407694;19;19918;-63
2023/01/01 08:09:22;;;;;;;5.10;2.88;;;17.00;77.00;;;;;;7407362;19;19927;-64
2023/01/01 08:11:52;;;;;;;4.35;3.10;;;17.00;76.90;;;;;;7407223;19;19950;-64
2023/01/01 08:14:21;;;;;;;4.50;2.10;;;17.00;76.90;;;;;;7405251;19;19946;-63
2023/01/01 08:16:51;;;;;;;4.68;2.92;;;17.00;76.80;;;;;;7405388;19;20340;-63
2023/01/01 08:19:22;;;;;;;5.55;3.70;;;17.00;76.70;;;;;;7406736;19;19910;-63
2023/01/01 08:21:51;;;;;;;4.30;2.13;;;17.00;76.70;;;;;;7406886;19;20330;-64
2023/01/01 08:24:21;;;;;;;3.78;1.77;;;17.00;76.70;;;;;;7404983;19;20320;-63
2023/01/01 08:26:51;;;;;;;3.72;2.70;;;17.00;76.70;;;;;;7406690;19;20259;-64
2023/01/01 08:29:21;;;;;;;6.25;2.85;;;17.00;76.60;;;;;;7408912;19;19926;-63
2023/01/01 08:31:50;;;;;;;4.45;2.90;;;17.00;76.60;;;;;;7406501;19;20333;-64
2023/01/01 08:34:22;;;;;;;3.90;2.53;;;17.00;76.50;;;;;;7405975;19;19927;-64
2023/01/01 08:36:51;;;;;;;3.97;1.80;;;17.00;76.60;;;;;;7405032;19;19918;-64
2023/01/01 08:39:20;;;;;;;4.30;2.13;;;17.00;76.50;;;;;;7404680;19;19921;-63
2023/01/01 08:41:49;;;;;;;3.15;1.85;;;16.90;76.50;;;;;;7406205;19;19919;-64
2023/01/01 08:44:20;;;;;;;5.38;2.58;;;16.90;76.40;;;;;;7405834;19;19994;-64
2023/01/01 08:46:54;;;;;;;4.20;2.42;;;16.90;76.50;;;;;;7406240;19;19919;-63
2023/01/01 08:49:32;;;;;;;4.20;2.70;;;16.90;76.50;;;;;;7405018;19;19914;-63
2023/01/01 08:52:03;;;;;;;4.32;1.95;;;16.90;76.50;;;;;;7405831;19;20016;-63
2023/01/01 08:54:35;;;;;;;5.75;2.88;;;16.90;76.40;;;;;;7406092;19;19914;-63
2023/01/01 08:57:04;;;;;;;3.95;2.42;;;16.90;76.50;;;;;;7405920;19;19986;-63
2023/01/01 08:59:33;;;;;;;3.45;2.22;;;16.80;76.40;;;;;;7409169;19;20273;-63
2023/01/01 09:02:03;;;;;;;5.20;1.63;;;16.80;76.40;;;;;;7406061;19;19919;-63
2023/01/01 09:04:35;;;;;;;4.25;2.63;;;16.80;76.40;;;;;;7405095;19;19918;-64
2023/01/01 09:07:18;;;;;;;4.25;1.48;;;16.80;76.40;;;;;;7406593;19;19971;-63
2023/01/01 09:09:47;;;;;;;4.65;2.30;;;16.80;76.40;;;;;;7405242;19;20355;-64
2023/01/01 09:12:18;;;;;;;5.45;1.80;;;16.80;76.40;;;;;;7405334;19;20312;-64
2023/01/01 09:14:49;;;;;;;4.60;2.65;;;16.80;76.40;;;;;;7405584;19;19914;-64
2023/01/01 09:17:18;;;;;;;7.57;2.58;;;16.80;76.40;;;;;;7404933;19;20340;-63
2023/01/01 09:19:49;;;;;;;3.75;1.83;;;16.70;76.30;;;;;;7405681;19;19974;-63
2023/01/01 09:22:24;;;;;;;4.25;2.20;;;16.70;76.40;;;;;;7405096;19;19922;-64
2023/01/01 09:24:54;;;;;;;4.03;2.00;;;16.70;76.30;;;;;;7405281;19;19937;-63
2023/01/01 09:27:23;;;;;;;4.22;1.52;;;16.70;76.30;;;;;;7408522;19;19933;-64
2023/01/01 09:29:52;;;;;;;5.45;2.28;;;16.70;76.30;;;;;;7403187;19;19914;-63
2023/01/01 09:32:22;;;;;;;5.20;2.20;;;16.70;76.30;;;;;;7405146;19;19974;-64
2023/01/01 09:34:55;;;;;;;3.00;1.88;;;16.70;76.30;;;;;;7404616;19;20432;-64
2023/01/01 09:37:25;;;;;;;3.67;1.55;;;16.70;76.30;;;;;;7404991;19;19918;-64
2023/01/01 09:39:54;;;;;;;5.18;2.00;;;16.70;76.30;;;;;;7404471;19;19923;-63
2023/01/01 09:42:37;;;;;;;4.88;2.10;;;16.70;76.30;;;;;;7404620;19;19917;-64
2023/01/01 09:45:21;;;;;;;3.72;1.35;;;16.70;76.30;;;;;;7403181;19;19923;-64
2023/01/01 09:48:01;;;;;;;4.00;1.23;;;16.70;76.30;;;;;;7404347;19;19914;-63
2023/01/01 09:50:38;;;;;;;4.30;1.90;;;16.70;76.30;;;;;;7404151;19;20263;-64
2023/01/01 09:53:14;;;;;;;5.30;2.40;;;16.70;76.30;;;;;;7404116;19;19919;-63
2023/01/01 09:55:47;;;;;;;2.50;1.02;;;16.60;76.20;;;;;;7402338;19;19919;-64
2023/01/01 09:58:17;;;;;;;4.25;1.38;;;16.60;76.20;;;;;;7407188;19;19946;-64
2023/01/01 10:00:52;;;;;;;4.20;1.67;;;16.70;76.30;;;;;;7402128;19;19922;-63
2023/01/01 10:03:32;;;;;;;4.53;1.98;;;16.60;76.20;;;;;;7409230;19;20248;-63
2023/01/01 10:06:15;;;;;;;3.60;1.63;;;16.60;76.20;;;;;;7410315;19;19931;-64
2023/01/01 10:08:55;;;;;;;4.70;1.35;;;16.60;76.20;;;;;;7410331;19;19929;-64
2023/01/01 10:11:32;;;;;;;4.03;1.48;;;16.60;76.20;;;;;;7410679;19;19926;-64
2023/01/01 10:14:03;;;;;;;3.90;1.73;;;16.60;76.20;;;;;;7410190;19;19918;-64
2023/01/01 10:16:38;;;;;;;4.25;1.88;;;16.60;76.20;;;;;;7408863;19;20241;-64
2023/01/01 10:19:22;;;;;;;3.67;1.70;;;16.60;76.10;;;;;;7408329;19;19921;-64
2023/01/01 10:21:58;;;;;;;4.07;1.38;;;16.60;76.10;;;;;;7410276;19;19946;-64
2023/01/01 10:24:37;;;;;;;3.80;2.40;;;16.60;76.10;;;;;;7407949;19;19922;-64
2023/01/01 10:27:08;;;;;;;4.22;1.75;;;16.60;76.10;;;;;;7409929;19;20251;-63
2023/01/01 10:29:40;;;;;;;;;;;16.60;76.20;;;;;;7410361;19;19919;-64
2023/01/01 10:32:20;;;;;;;4.22;1.30;;;16.60;76.20;;;;;;7409729;19;20321;-64
2023/01/01 10:34:52;;;;;;;4.15;1.90;;;16.60;76.10;;;;;;7409941;19;19918;-64
2023/01/01 10:37:24;;;;;;;3.42;1.13;;;16.60;76.10;;;;;;7409848;19;19915;-64
2023/01/01 10:39:53;;;;;;;3.78;0.90;;;16.70;76.10;;;;;;7407448;19;19915;-64
2023/01/01 10:42:22;;;;;;;4.20;1.33;;;16.70;76.20;;;;;;7409996;19;20361;-63
2023/01/01 10:44:54;;;;;;;4.18;2.05;;;16.80;76.20;;;;;;7407724;19;20343;-63
2023/01/01 10:47:28;;;;;;;3.15;1.50;;;16.80;76.10;;;;;;7409830;19;19917;-64
2023/01/01 10:49:59;;;;;;;4.13;1.50;;;16.80;76.20;;;;;;7409359;19;20283;-63
2023/01/01 10:52:39;;;;;;;3.78;2.15;;;16.90;76.20;;;;;;7409121;19;20272;-63
2023/01/01 10:55:20;;;;;;;3.97;1.38;;;16.90;76.10;;;;;;7409411;19;20426;-63
2023/01/01 10:57:49;;;;;;;2.72;1.80;;;16.90;76.10;;;;;;7408731;19;19922;-63
2023/01/01 11:00:24;;;;;;;4.78;2.05;;;17.00;76.20;;;;;;7409435;19;19915;-63
2023/01/01 11:03:15;;;;;;;2.60;1.33;;;17.00;76.00;;;;;;7408245;19;20229;-64
2023/01/01 11:06:03;;;;;;;4.07;1.20;;;17.10;76.00;;;;;;7408637;19;19915;-64
2023/01/01 11:08:39;;;;;;;3.45;1.08;;;17.10;76.00;;;;;;7409367;19;19938;-64
2023/01/01 11:11:08;;;;;;;;;;;17.10;76.00;;;;;;7410810;19;19918;-64
2023/01/01 11:13:37;;;;;;;4.25;1.10;;;17.10;75.90;;;;;;7408193;19;20303;-64
2023/01/01 11:16:13;;;;;;;4.32;1.15;;;17.10;75.90;;;;;;7408326;19;20016;-63
2023/01/01 11:18:42;;;;;;;4.25;1.50;;;17.10;75.80;;;;;;7407518;19;19915;-64
2023/01/01 11:21:11;;;;;;;2.95;1.42;;;17.10;75.80;;;;;;7408558;19;19911;-63
2023/01/01 11:23:43;;;;;;;3.67;1.10;;;17.10;75.80;;;;;;7406759;19;19963;-65
2023/01/01 11:26:23;;;;;;;4.30;1.30;;;17.10;75.80;;;;;;7410490;19;19926;-64
2023/01/01 11:29:03;;;;;;;3.25;1.65;;;17.10;75.80;;;;;;7408134;19;19936;-63
2023/01/01 11:31:37;;;;;;;2.25;0.77;;;17.10;75.80;;;;;;7408522;19;19950;-63
2023/01/01 11:34:25;;;;;;;4.03;1.67;;;17.10;75.70;;;;;;7408660;19;20100;-64
2023/01/01 11:36:54;;;;;;;3.35;1.05;;;17.10;75.70;;;;;;7408103;19;19923;-63
2023/01/01 11:39:28;;;;;;;3.03;1.02;;;17.10;75.70;;;;;;7406511;19;19922;-63
2023/01/01 11:41:59;;;;;;;2.60;0.63;;;17.10;75.70;;;;;;7406094;19;19921;-64
2023/01/01 11:44:36;;;;;;;5.55;1.40;;;17.10;75.70;;;;;;7406886;19;19926;-63
2023/01/01 11:47:07;;;;;;;4.68;1.50;;;17.10;75.60;;;;;;7407689;19;19915;-63
2023/01/01 11:49:36;;;;;;;4.18;1.50;;;17.10;75.70;;;;;;7408132;19;19911;-64
2023/01/01 11:52:30;;;;;;;3.70;1.27;;;17.10;75.60;;;;;;7407458;19;19933;-64
2023/01/01 11:55:14;;;;;;;2.90;1.65;;;17.10;75.60;;;;;;7410943;19;19919;-64
2023/01/01 11:57:52;;;;;;;4.18;1.00;;;17.10;75.60;;;;;;7408014;19;19919;-63
2023/01/01 12:00:22;;;;;;;3.25;0.73;;;17.00;75.60;;;;;;7405137;19;20261;-64
2023/01/01 12:02:57;;;;;;;2.53;0.73;;;17.00;75.60;;;;;;7407204;19;19910;-64
2023/01/01 12:05:32;;;;;;;5.03;0.85;;;17.00;75.50;;;;;;7407381;19;19914;-64
2023/01/01 12:08:04;;;;;;;2.90;0.75;;;17.00;75.50;;;;;;7407208;19;20403;-63
2023/01/01 12:10:46;;;;;;;3.53;1.15;;;17.00;75.50;;;;;;7407363;19;19926;-63
2023/01/01 12:13:22;;;;;;;3.00;0.80;;;17.00;75.50;;;;;;7407205;19;19933;-63
2023/01/01 12:15:56;;;;;;;3.30;1.38;;;17.00;75.50;;;;;;7406964;19;20267;-64
2023/01/01 12:18:30;;;;;;;3.00;0.75;;;17.00;75.40;;;;;;7406558;19;19918;-64
2023/01/01 12:21:24;;;;;;;3.15;1.05;;;17.00;75.40;;;;;;7405234;19;19922;-64
2023/01/01 12:24:14;;;;;;;3.22;1.23;;;17.00;75.40;;;;;;7402864;19;19925;-65
2023/01/01 12:27:02;;;;;;;2.13;1.00;;;17.10;75.50;;;;;;7406574;19;20271;-64
2023/01/01 12:30:00;;;;;;;3.92;1.40;;;17.10;75.40;;;;;;7406846;19;19926;-64
2023/01/01 12:32:42;;;;;;;3.38;0.82;;;17.10;75.40;;;;;;7406821;19;19918;-64
2023/01/01 12:35:22;;;;;;;3.65;1.02;;;17.10;75.40;;;;;;7406371;19;19919;-64
2023/01/01 12:38:01;;;;;;;4.13;0.98;;;17.10;75.40;;;;;;7406343;19;19942;-64
2023/01/01 12:40:50;;;;;;;3.78;0.63;;;17.10;75.40;;;;;;7404168;19;19911;-64
2023/01/01 12:43:28;;;;;;;3.30;1.23;;;17.00;75.90;;;;;;7406256;19;20260;-63
2023/01/01 12:46:14;;;;;;;3.35;0.52;;;17.00;75.30;;;;;;7406237;19;19990;-63
2023/01/01 12:49:06;;;;;;;3.65;1.15;;;17.00;75.30;;;;;;7406163;19;19927;-64
2023/01/01 12:52:04;;;;;;;5.50;1.50;;;17.00;75.30;;;;;;7404521;19;19915;-64
2023/01/01 12:55:20;;;;;;;3.15;0.55;;;17.00;75.30;;;;;;7408324;19;19918;-64
2023/01/01 12:57:55;;;;;;;2.17;0.63;;;17.00;75.40;;;;;;7405596;19;19911;-64
2023/01/01 13:00:28;;;;;;;3.95;1.25;;;16.90;75.30;;;;;;7404307;19;19917;-64
2023/01/01 13:03:01;;;;;;;3.70;0.82;;;16.90;75.40;;;;;;7405279;19;19915;-64
2023/01/01 13:05:38;;;;;;;2.95;0.57;;;16.90;75.40;;;;;;7406253;19;19921;-64
2023/01/01 13:08:08;;;;;;;3.75;0.70;;;16.90;75.40;;;;;;7405687;19;19946;-63
2023/01/01 13:10:40;;;;;;;3.08;0.95;;;16.90;75.40;;;;;;7405839;19;19915;-64
2023/01/01 13:13:09;;;;;;;3.95;0.95;;;16.90;75.40;;;;;;7405357;19;20012;-63
2023/01/01 13:15:54;;;;;;;4.90;0.80;;;16.90;75.40;;;;;;7403456;19;19949;-64